Aérodrome :
LOGIN :

S'inscrire | Disclaimer

   EN    FR    IT 

 










Légende :    VFR   VFR Marginal   IFR   IFR Intensif   IFR Très Intensif
Visi : 
Plafond : 
>= 8 km
>= 3000ft
5 à 8 km
1000 à 3000 ft
1500m à 5 km
500 à 1000 ft
800 à 1500m
200 à 500 ft
< 800m
< 200 ft
Symboles :   Orages  Brouillard  Fortes neiges  Fortes précipitations  Vent > 20 kt
SIGMETs :   Divers  Orages  Givrage  Turbulence  Onde Orograph.  Cendres Volcan.






- Altitude de l'aérodrome : 526 ft
- Code IATA : LTN


EGGW - London Luton

DERNIER METAR :
  • 180050Z AUTO 35011KT 9999 -RA BKN006 BKN026 06/05 Q1013

METARs EXPIRÉS :
  • 180020Z AUTO 35010KT 9999 -RA BKN006 OVC018 06/05 Q1013
  • 172350Z AUTO 36010KT 7000 -RA BKN019 OVC025 06/05 Q1013
  • 172320Z AUTO 02011KT 9999 OVC015 06/05 Q1013
  • 172250Z AUTO 01012G22KT 4800 -RA BKN003 OVC015 06/06 Q1013
  • 172220Z 02012G24KT 350V070 3900 -RADZ OVC003 07/06 Q1013

TAF TAF EGGW
Valide du 18 à 00h jusqu'au 19 à 00h UTC


172255Z 1800/1824 35012KT 6000 BKN003
BECMG 1800/1803 9999 SCT014
PROB40
TEMPO 1800/1801 1400 -RADZ BR BKN001
TEMPO 1803/1811 BKN008
PROB30
TEMPO 1804/1809 2000 BR BKN003
BECMG 1820/1823 28005KT 8000
ATIS : +44 1582 395 204



MET'MAP, la Météo Aéronautique d'un coup d'oeil ! - Copyright ORBIFLY Décembre 2007 - Disclaimer

ORBIFLY MET'MAP TEAM :

Programmation & Développement : Alexandra Zaïnal
Conception & Développement : Baudouin d'Aumeries
Co-Programmation & Développement : Marc-Olivier Méhu
Soutien technique & logistique : Manuel Goepfert

Contact : metmap@orbifly.com




SOURCES & CREDITS :

   NOAA